sensor_id;sensor_type;location;lat;lon;timestamp;temperature;humidity
54590;DHT22;40485;53.172;5.416;2022-10-16T00:01:27;13.70;99.90
54590;DHT22;40485;53.172;5.416;2022-10-16T00:03:54;13.60;99.90
54590;DHT22;40485;53.172;5.416;2022-10-16T00:06:21;13.70;99.90
54590;DHT22;40485;53.172;5.416;2022-10-16T00:08:47;13.70;99.90
54590;DHT22;40485;53.172;5.416;2022-10-16T00:11:21;13.80;99.90
54590;DHT22;40485;53.172;5.416;2022-10-16T00:13:49;13.70;99.90
54590;DHT22;40485;53.172;5.416;2022-10-16T00:16:15;14.00;99.90
54590;DHT22;40485;53.172;5.416;2022-10-16T00:18:42;13.70;99.90
54590;DHT22;40485;53.172;5.416;2022-10-16T00:21:10;13.70;99.90
54590;DHT22;40485;53.172;5.416;2022-10-16T00:23:36;13.70;99.90
54590;DHT22;40485;53.172;5.416;2022-10-16T00:26:04;13.80;99.90
54590;DHT22;40485;53.172;5.416;2022-10-16T00:28:31;13.70;99.90
54590;DHT22;40485;53.172;5.416;2022-10-16T00:30:57;13.70;99.90
54590;DHT22;40485;53.172;5.416;2022-10-16T00:33:23;13.70;99.90
54590;DHT22;40485;53.172;5.416;2022-10-16T00:35:49;13.70;99.90
54590;DHT22;40485;53.172;5.416;2022-10-16T00:38:16;13.80;99.90
54590;DHT22;40485;53.172;5.416;2022-10-16T00:40:42;13.70;99.90
54590;DHT22;40485;53.172;5.416;2022-10-16T00:46:05;13.70;99.90
54590;DHT22;40485;53.172;5.416;2022-10-16T00:48:31;13.70;99.90
54590;DHT22;40485;53.172;5.416;2022-10-16T00:50:57;13.70;99.90
54590;DHT22;40485;53.172;5.416;2022-10-16T00:53:25;13.70;99.90
54590;DHT22;40485;53.172;5.416;2022-10-16T00:55:51;13.70;99.90
54590;DHT22;40485;53.172;5.416;2022-10-16T00:58:17;13.70;99.90
54590;DHT22;40485;53.172;5.416;2022-10-16T01:00:42;13.70;99.90
54590;DHT22;40485;53.172;5.416;2022-10-16T01:03:28;13.80;99.90
54590;DHT22;40485;53.172;5.416;2022-10-16T01:08:50;13.80;99.90
54590;DHT22;40485;53.172;5.416;2022-10-16T01:11:23;13.80;99.90
54590;DHT22;40485;53.172;5.416;2022-10-16T01:13:55;13.80;99.90
54590;DHT22;40485;53.172;5.416;2022-10-16T01:16:38;13.80;99.90
54590;DHT22;40485;53.172;5.416;2022-10-16T01:19:13;13.80;99.90
54590;DHT22;40485;53.172;5.416;2022-10-16T01:21:43;13.80;99.90
54590;DHT22;40485;53.172;5.416;2022-10-16T01:24:31;13.80;99.90
54590;DHT22;40485;53.172;5.416;2022-10-16T01:27:30;13.70;99.90
54590;DHT22;40485;53.172;5.416;2022-10-16T01:30:17;13.70;99.90
54590;DHT22;40485;53.172;5.416;2022-10-16T01:35:30;13.80;99.90
54590;DHT22;40485;53.172;5.416;2022-10-16T01:38:07;13.80;99.90
54590;DHT22;40485;53.172;5.416;2022-10-16T01:40:38;13.90;99.90
54590;DHT22;40485;53.172;5.416;2022-10-16T01:43:08;13.80;99.90
54590;DHT22;40485;53.172;5.416;2022-10-16T01:45:36;13.80;99.90
54590;DHT22;40485;53.172;5.416;2022-10-16T01:48:03;13.90;99.90
54590;DHT22;40485;53.172;5.416;2022-10-16T01:50:33;14.00;99.90
54590;DHT22;40485;53.172;5.416;2022-10-16T01:53:02;13.90;99.90
54590;DHT22;40485;53.172;5.416;2022-10-16T01:55:32;13.80;99.90
54590;DHT22;40485;53.172;5.416;2022-10-16T01:57:59;13.80;99.90
54590;DHT22;40485;53.172;5.416;2022-10-16T02:00:29;13.70;99.90
54590;DHT22;40485;53.172;5.416;2022-10-16T02:02:58;13.60;99.90
54590;DHT22;40485;53.172;5.416;2022-10-16T02:05:41;13.60;99.90
54590;DHT22;40485;53.172;5.416;2022-10-16T02:08:09;13.50;99.90
54590;DHT22;40485;53.172;5.416;2022-10-16T02:10:36;13.50;99.90
54590;DHT22;40485;53.172;5.416;2022-10-16T02:15:34;13.50;99.90
54590;DHT22;40485;53.172;5.416;2022-10-16T02:18:02;13.50;99.90
54590;DHT22;40485;53.172;5.416;2022-10-16T02:20:29;13.50;99.90
54590;DHT22;40485;53.172;5.416;2022-10-16T02:22:57;13.50;99.90
54590;DHT22;40485;53.172;5.416;2022-10-16T02:25:36;13.40;99.90
54590;DHT22;40485;53.172;5.416;2022-10-16T02:28:17;13.40;99.90
54590;DHT22;40485;53.172;5.416;2022-10-16T02:31:02;13.40;99.90
54590;DHT22;40485;53.172;5.416;2022-10-16T02:33:29;13.40;99.90
54590;DHT22;40485;53.172;5.416;2022-10-16T02:35:57;13.30;99.90
54590;DHT22;40485;53.172;5.416;2022-10-16T02:38:24;13.30;99.90
54590;DHT22;40485;53.172;5.416;2022-10-16T02:40:50;13.30;99.90
54590;DHT22;40485;53.172;5.416;2022-10-16T02:43:16;13.40;99.90
54590;DHT22;40485;53.172;5.416;2022-10-16T02:45:42;13.30;99.90
54590;DHT22;40485;53.172;5.416;2022-10-16T02:48:08;13.10;99.90
54590;DHT22;40485;53.172;5.416;2022-10-16T02:50:34;13.30;99.90
54590;DHT22;40485;53.172;5.416;2022-10-16T02:53:00;13.30;99.90
54590;DHT22;40485;53.172;5.416;2022-10-16T02:55:26;13.30;99.90
54590;DHT22;40485;53.172;5.416;2022-10-16T02:57:53;13.40;99.90
54590;DHT22;40485;53.172;5.416;2022-10-16T03:00:19;13.40;99.90
54590;DHT22;40485;53.172;5.416;2022-10-16T03:02:45;13.40;99.90
54590;DHT22;40485;53.172;5.416;2022-10-16T03:05:12;13.40;99.90
54590;DHT22;40485;53.172;5.416;2022-10-16T03:07:38;13.40;99.90
54590;DHT22;40485;53.172;5.416;2022-10-16T03:10:04;13.40;99.90
54590;DHT22;40485;53.172;5.416;2022-10-16T03:12:30;13.40;99.90
54590;DHT22;40485;53.172;5.416;2022-10-16T03:14:56;13.50;99.90
54590;DHT22;40485;53.172;5.416;2022-10-16T03:17:23;13.50;99.90
54590;DHT22;40485;53.172;5.416;2022-10-16T03:19:49;13.50;99.90
54590;DHT22;40485;53.172;5.416;2022-10-16T03:22:14;13.50;99.90
54590;DHT22;40485;53.172;5.416;2022-10-16T03:24:40;13.50;99.90
54590;DHT22;40485;53.172;5.416;2022-10-16T03:27:06;13.50;99.90
54590;DHT22;40485;53.172;5.416;2022-10-16T03:29:32;13.50;99.90
54590;DHT22;40485;53.172;5.416;2022-10-16T03:31:58;13.50;99.90
54590;DHT22;40485;53.172;5.416;2022-10-16T03:34:24;13.40;99.90
54590;DHT22;40485;53.172;5.416;2022-10-16T03:36:51;13.40;99.90
54590;DHT22;40485;53.172;5.416;2022-10-16T03:39:17;13.40;99.90
54590;DHT22;40485;53.172;5.416;2022-10-16T03:41:42;13.40;99.90
54590;DHT22;40485;53.172;5.416;2022-10-16T03:44:08;13.40;99.90
54590;DHT22;40485;53.172;5.416;2022-10-16T03:46:33;13.50;99.90
54590;DHT22;40485;53.172;5.416;2022-10-16T03:48:59;13.40;99.90
54590;DHT22;40485;53.172;5.416;2022-10-16T03:51:24;13.50;99.90
54590;DHT22;40485;53.172;5.416;2022-10-16T03:53:50;13.60;99.90
54590;DHT22;40485;53.172;5.416;2022-10-16T03:56:16;13.60;99.90
54590;DHT22;40485;53.172;5.416;2022-10-16T03:58:42;13.50;99.90
54590;DHT22;40485;53.172;5.416;2022-10-16T04:01:08;13.50;99.90
54590;DHT22;40485;53.172;5.416;2022-10-16T04:03:34;13.60;99.90
54590;DHT22;40485;53.172;5.416;2022-10-16T04:05:59;13.50;99.90
54590;DHT22;40485;53.172;5.416;2022-10-16T04:08:25;13.50;99.90
54590;DHT22;40485;53.172;5.416;2022-10-16T04:10:50;13.50;99.90
54590;DHT22;40485;53.172;5.416;2022-10-16T04:13:16;13.50;99.90
54590;DHT22;40485;53.172;5.416;2022-10-16T04:15:42;13.50;99.90
54590;DHT22;40485;53.172;5.416;2022-10-16T04:18:07;13.40;99.90
54590;DHT22;40485;53.172;5.416;2022-10-16T04:20:33;13.50;99.90
54590;DHT22;40485;53.172;5.416;2022-10-16T04:22:59;13.40;99.90
54590;DHT22;40485;53.172;5.416;2022-10-16T04:25:24;13.40;99.90
54590;DHT22;40485;53.172;5.416;2022-10-16T04:27:52;13.50;99.90
54590;DHT22;40485;53.172;5.416;2022-10-16T04:30:18;13.40;99.90
54590;DHT22;40485;53.172;5.416;2022-10-16T04:32:48;13.50;99.90
54590;DHT22;40485;53.172;5.416;2022-10-16T04:35:14;13.40;99.90
54590;DHT22;40485;53.172;5.416;2022-10-16T04:37:39;13.40;99.90
54590;DHT22;40485;53.172;5.416;2022-10-16T04:40:05;13.40;99.90
54590;DHT22;40485;53.172;5.416;2022-10-16T04:42:31;13.40;99.90
54590;DHT22;40485;53.172;5.416;2022-10-16T04:44:56;13.40;99.90
54590;DHT22;40485;53.172;5.416;2022-10-16T04:47:22;13.40;99.90
54590;DHT22;40485;53.172;5.416;2022-10-16T04:49:48;13.50;99.90
54590;DHT22;40485;53.172;5.416;2022-10-16T04:52:13;13.40;99.90
54590;DHT22;40485;53.172;5.416;2022-10-16T04:54:39;13.40;99.90
54590;DHT22;40485;53.172;5.416;2022-10-16T04:57:04;13.40;99.90
54590;DHT22;40485;53.172;5.416;2022-10-16T04:59:30;13.50;99.90
54590;DHT22;40485;53.172;5.416;2022-10-16T05:01:55;13.60;99.90
54590;DHT22;40485;53.172;5.416;2022-10-16T05:04:21;13.60;99.90
54590;DHT22;40485;53.172;5.416;2022-10-16T05:06:47;13.60;99.90
54590;DHT22;40485;53.172;5.416;2022-10-16T05:09:13;13.60;99.90
54590;DHT22;40485;53.172;5.416;2022-10-16T05:11:39;13.60;99.90
54590;DHT22;40485;53.172;5.416;2022-10-16T05:14:04;13.60;99.90
54590;DHT22;40485;53.172;5.416;2022-10-16T05:16:30;13.60;99.90
54590;DHT22;40485;53.172;5.416;2022-10-16T05:18:56;13.60;99.90
54590;DHT22;40485;53.172;5.416;2022-10-16T05:21:22;13.50;99.90
54590;DHT22;40485;53.172;5.416;2022-10-16T05:23:48;13.50;99.90
54590;DHT22;40485;53.172;5.416;2022-10-16T05:26:13;13.40;99.90
54590;DHT22;40485;53.172;5.416;2022-10-16T05:28:39;13.40;99.90
54590;DHT22;40485;53.172;5.416;2022-10-16T05:31:09;13.40;99.90
54590;DHT22;40485;53.172;5.416;2022-10-16T05:33:34;13.40;99.90
54590;DHT22;40485;53.172;5.416;2022-10-16T05:36:05;13.40;99.90
54590;DHT22;40485;53.172;5.416;2022-10-16T05:38:33;13.40;99.90
54590;DHT22;40485;53.172;5.416;2022-10-16T05:40:58;13.40;99.90
54590;DHT22;40485;53.172;5.416;2022-10-16T05:43:24;13.40;99.90
54590;DHT22;40485;53.172;5.416;2022-10-16T05:46:03;13.40;99.90
54590;DHT22;40485;53.172;5.416;2022-10-16T05:48:30;13.40;99.90
54590;DHT22;40485;53.172;5.416;2022-10-16T05:50:58;13.40;99.90
54590;DHT22;40485;53.172;5.416;2022-10-16T05:53:24;13.40;99.90
54590;DHT22;40485;53.172;5.416;2022-10-16T05:55:55;13.30;99.90
54590;DHT22;40485;53.172;5.416;2022-10-16T05:58:21;13.40;99.90
54590;DHT22;40485;53.172;5.416;2022-10-16T06:00:55;13.40;99.90
54590;DHT22;40485;53.172;5.416;2022-10-16T06:03:21;13.40;99.90
54590;DHT22;40485;53.172;5.416;2022-10-16T06:05:46;13.40;99.90
54590;DHT22;40485;53.172;5.416;2022-10-16T06:08:12;13.40;99.90
54590;DHT22;40485;53.172;5.416;2022-10-16T06:10:37;13.50;99.90
54590;DHT22;40485;53.172;5.416;2022-10-16T06:13:03;13.30;99.90
54590;DHT22;40485;53.172;5.416;2022-10-16T06:15:29;13.30;99.90
54590;DHT22;40485;53.172;5.416;2022-10-16T06:17:54;13.30;99.90
54590;DHT22;40485;53.172;5.416;2022-10-16T06:20:20;13.20;99.90
54590;DHT22;40485;53.172;5.416;2022-10-16T06:22:46;13.30;99.90
54590;DHT22;40485;53.172;5.416;2022-10-16T06:25:11;13.20;99.90
54590;DHT22;40485;53.172;5.416;2022-10-16T06:27:39;13.20;99.90
54590;DHT22;40485;53.172;5.416;2022-10-16T06:30:06;13.20;99.90
54590;DHT22;40485;53.172;5.416;2022-10-16T06:32:32;13.20;99.90
54590;DHT22;40485;53.172;5.416;2022-10-16T06:34:58;13.20;99.90
54590;DHT22;40485;53.172;5.416;2022-10-16T06:37:23;13.20;99.90
54590;DHT22;40485;53.172;5.416;2022-10-16T06:39:50;13.20;99.90
54590;DHT22;40485;53.172;5.416;2022-10-16T06:42:18;13.20;99.90
54590;DHT22;40485;53.172;5.416;2022-10-16T06:44:43;13.20;99.90
54590;DHT22;40485;53.172;5.416;2022-10-16T06:47:09;13.30;99.90
54590;DHT22;40485;53.172;5.416;2022-10-16T06:49:35;13.30;99.90
54590;DHT22;40485;53.172;5.416;2022-10-16T06:52:00;13.40;99.90
54590;DHT22;40485;53.172;5.416;2022-10-16T06:54:27;13.40;99.90
54590;DHT22;40485;53.172;5.416;2022-10-16T06:56:52;13.40;99.90
54590;DHT22;40485;53.172;5.416;2022-10-16T06:59:20;13.40;99.90
54590;DHT22;40485;53.172;5.416;2022-10-16T07:01:46;13.40;99.90
54590;DHT22;40485;53.172;5.416;2022-10-16T07:04:11;13.60;99.90
54590;DHT22;40485;53.172;5.416;2022-10-16T07:06:37;13.40;99.90
54590;DHT22;40485;53.172;5.416;2022-10-16T07:09:05;13.50;99.90
54590;DHT22;40485;53.172;5.416;2022-10-16T07:11:31;13.60;99.90
54590;DHT22;40485;53.172;5.416;2022-10-16T07:13:57;13.60;99.90
54590;DHT22;40485;53.172;5.416;2022-10-16T07:16:27;13.60;99.90
54590;DHT22;40485;53.172;5.416;2022-10-16T07:18:54;13.70;99.90
54590;DHT22;40485;53.172;5.416;2022-10-16T07:21:25;13.60;99.90
54590;DHT22;40485;53.172;5.416;2022-10-16T07:23:58;13.70;99.90
54590;DHT22;40485;53.172;5.416;2022-10-16T07:26:24;13.70;99.90
54590;DHT22;40485;53.172;5.416;2022-10-16T07:28:50;13.70;99.90
54590;DHT22;40485;53.172;5.416;2022-10-16T07:31:17;13.70;99.90
54590;DHT22;40485;53.172;5.416;2022-10-16T07:33:44;13.70;99.90
54590;DHT22;40485;53.172;5.416;2022-10-16T07:36:11;13.80;99.90
54590;DHT22;40485;53.172;5.416;2022-10-16T07:38:37;13.70;99.90
54590;DHT22;40485;53.172;5.416;2022-10-16T07:41:05;13.80;99.90
54590;DHT22;40485;53.172;5.416;2022-10-16T07:43:32;13.80;99.90
54590;DHT22;40485;53.172;5.416;2022-10-16T07:45:57;13.70;99.90
54590;DHT22;40485;53.172;5.416;2022-10-16T07:48:24;13.90;99.90
54590;DHT22;40485;53.172;5.416;2022-10-16T07:50:51;13.80;99.90
54590;DHT22;40485;53.172;5.416;2022-10-16T07:53:17;13.70;99.90
54590;DHT22;40485;53.172;5.416;2022-10-16T07:55:43;13.80;99.90
54590;DHT22;40485;53.172;5.416;2022-10-16T07:58:08;13.80;99.90
54590;DHT22;40485;53.172;5.416;2022-10-16T08:00:36;13.90;99.90
54590;DHT22;40485;53.172;5.416;2022-10-16T08:03:02;14.00;99.90
54590;DHT22;40485;53.172;5.416;2022-10-16T08:05:29;14.00;99.90
54590;DHT22;40485;53.172;5.416;2022-10-16T08:07:55;14.10;99.90
54590;DHT22;40485;53.172;5.416;2022-10-16T08:10:23;14.10;99.90
54590;DHT22;40485;53.172;5.416;2022-10-16T08:12:50;14.20;99.90
54590;DHT22;40485;53.172;5.416;2022-10-16T08:15:16;14.30;99.90
54590;DHT22;40485;53.172;5.416;2022-10-16T08:17:42;14.50;99.90
54590;DHT22;40485;53.172;5.416;2022-10-16T08:20:08;14.60;99.90
54590;DHT22;40485;53.172;5.416;2022-10-16T08:22:34;14.60;99.90
54590;DHT22;40485;53.172;5.416;2022-10-16T08:24:59;14.70;99.90
54590;DHT22;40485;53.172;5.416;2022-10-16T08:27:25;14.80;99.90
54590;DHT22;40485;53.172;5.416;2022-10-16T08:29:50;14.90;99.90
54590;DHT22;40485;53.172;5.416;2022-10-16T08:32:16;14.90;99.90
54590;DHT22;40485;53.172;5.416;2022-10-16T08:34:42;15.00;99.90
54590;DHT22;40485;53.172;5.416;2022-10-16T08:37:07;15.00;99.90
54590;DHT22;40485;53.172;5.416;2022-10-16T08:39:36;15.00;99.90
54590;DHT22;40485;53.172;5.416;2022-10-16T08:50:10;15.10;99.90
54590;DHT22;40485;53.172;5.416;2022-10-16T08:52:40;15.20;99.90
54590;DHT22;40485;53.172;5.416;2022-10-16T08:55:21;15.30;99.90
54590;DHT22;40485;53.172;5.416;2022-10-16T08:57:50;15.40;99.90
54590;DHT22;40485;53.172;5.416;2022-10-16T09:00:17;15.50;99.90
54590;DHT22;40485;53.172;5.416;2022-10-16T09:03:10;15.60;99.90
54590;DHT22;40485;53.172;5.416;2022-10-16T09:05:57;15.60;99.90
54590;DHT22;40485;53.172;5.416;2022-10-16T09:08:35;15.60;99.90
54590;DHT22;40485;53.172;5.416;2022-10-16T09:17:08;15.90;99.90
54590;DHT22;40485;53.172;5.416;2022-10-16T09:19:43;16.10;99.90
54590;DHT22;40485;53.172;5.416;2022-10-16T09:22:15;16.30;99.90
54590;DHT22;40485;53.172;5.416;2022-10-16T09:24:41;16.30;99.90
54590;DHT22;40485;53.172;5.416;2022-10-16T09:27:11;16.40;99.90
54590;DHT22;40485;53.172;5.416;2022-10-16T09:29:37;16.60;99.90
54590;DHT22;40485;53.172;5.416;2022-10-16T09:32:22;16.50;99.70
54590;DHT22;40485;53.172;5.416;2022-10-16T09:34:50;16.60;99.50
54590;DHT22;40485;53.172;5.416;2022-10-16T09:37:19;16.70;99.20
54590;DHT22;40485;53.172;5.416;2022-10-16T09:39:54;16.70;97.50
54590;DHT22;40485;53.172;5.416;2022-10-16T09:42:27;16.80;97.40
54590;DHT22;40485;53.172;5.416;2022-10-16T09:44:56;16.80;96.90
54590;DHT22;40485;53.172;5.416;2022-10-16T09:47:29;16.90;96.70
54590;DHT22;40485;53.172;5.416;2022-10-16T09:50:00;17.00;96.90
54590;DHT22;40485;53.172;5.416;2022-10-16T09:52:28;16.90;96.50
54590;DHT22;40485;53.172;5.416;2022-10-16T09:54:56;17.00;96.60
54590;DHT22;40485;53.172;5.416;2022-10-16T09:57:23;17.00;96.70
54590;DHT22;40485;53.172;5.416;2022-10-16T09:59:58;17.30;96.90
54590;DHT22;40485;53.172;5.416;2022-10-16T10:02:36;17.20;96.70
54590;DHT22;40485;53.172;5.416;2022-10-16T10:05:05;17.30;96.60
54590;DHT22;40485;53.172;5.416;2022-10-16T10:07:43;17.30;96.60
54590;DHT22;40485;53.172;5.416;2022-10-16T10:10:26;17.30;96.50
54590;DHT22;40485;53.172;5.416;2022-10-16T10:12:52;17.50;96.30
54590;DHT22;40485;53.172;5.416;2022-10-16T10:15:19;17.60;96.70
54590;DHT22;40485;53.172;5.416;2022-10-16T10:17:50;17.50;96.20
54590;DHT22;40485;53.172;5.416;2022-10-16T10:20:23;17.60;96.30
54590;DHT22;40485;53.172;5.416;2022-10-16T10:22:49;17.60;96.40
54590;DHT22;40485;53.172;5.416;2022-10-16T10:31:06;17.70;95.30
54590;DHT22;40485;53.172;5.416;2022-10-16T10:38:52;17.80;95.90
54590;DHT22;40485;53.172;5.416;2022-10-16T10:47:01;17.90;93.70
54590;DHT22;40485;53.172;5.416;2022-10-16T10:52:22;17.90;94.40
54590;DHT22;40485;53.172;5.416;2022-10-16T10:55:19;18.00;94.40
54590;DHT22;40485;53.172;5.416;2022-10-16T11:06:20;18.10;94.20
54590;DHT22;40485;53.172;5.416;2022-10-16T11:09:15;18.10;94.40
54590;DHT22;40485;53.172;5.416;2022-10-16T11:11:51;18.20;94.70
54590;DHT22;40485;53.172;5.416;2022-10-16T11:14:22;18.20;94.20
54590;DHT22;40485;53.172;5.416;2022-10-16T11:16:56;18.40;93.30
54590;DHT22;40485;53.172;5.416;2022-10-16T11:22:27;18.50;92.70
54590;DHT22;40485;53.172;5.416;2022-10-16T11:25:14;18.60;92.90
54590;DHT22;40485;53.172;5.416;2022-10-16T11:27:57;18.60;93.10
54590;DHT22;40485;53.172;5.416;2022-10-16T11:30:28;18.70;93.20
54590;DHT22;40485;53.172;5.416;2022-10-16T11:35:45;18.80;92.30
54590;DHT22;40485;53.172;5.416;2022-10-16T11:38:20;18.80;92.50
54590;DHT22;40485;53.172;5.416;2022-10-16T11:40:53;18.80;92.90
54590;DHT22;40485;53.172;5.416;2022-10-16T11:43:30;18.80;92.00
54590;DHT22;40485;53.172;5.416;2022-10-16T11:46:04;18.80;92.10
54590;DHT22;40485;53.172;5.416;2022-10-16T11:48:45;18.80;92.30
54590;DHT22;40485;53.172;5.416;2022-10-16T11:51:38;18.80;92.40
54590;DHT22;40485;53.172;5.416;2022-10-16T11:54:36;18.90;92.00
54590;DHT22;40485;53.172;5.416;2022-10-16T11:57:12;18.90;91.70
54590;DHT22;40485;53.172;5.416;2022-10-16T11:59:58;19.00;91.70
54590;DHT22;40485;53.172;5.416;2022-10-16T12:06:25;19.00;92.40
54590;DHT22;40485;53.172;5.416;2022-10-16T12:08:33;19.10;91.70
54590;DHT22;40485;53.172;5.416;2022-10-16T12:13:51;19.20;91.60
54590;DHT22;40485;53.172;5.416;2022-10-16T12:18:45;19.20;91.10
54590;DHT22;40485;53.172;5.416;2022-10-16T12:21:13;19.20;90.90
54590;DHT22;40485;53.172;5.416;2022-10-16T12:23:55;19.20;91.00
54590;DHT22;40485;53.172;5.416;2022-10-16T12:26:39;19.20;90.90
54590;DHT22;40485;53.172;5.416;2022-10-16T12:29:14;19.30;90.60
54590;DHT22;40485;53.172;5.416;2022-10-16T12:31:47;19.30;90.60
54590;DHT22;40485;53.172;5.416;2022-10-16T12:34:22;19.30;90.90
54590;DHT22;40485;53.172;5.416;2022-10-16T12:36:49;19.30;90.80
54590;DHT22;40485;53.172;5.416;2022-10-16T12:39:27;19.30;90.90
54590;DHT22;40485;53.172;5.416;2022-10-16T12:42:04;19.40;90.90
54590;DHT22;40485;53.172;5.416;2022-10-16T12:44:35;19.40;91.10
54590;DHT22;40485;53.172;5.416;2022-10-16T12:47:02;19.30;90.80
54590;DHT22;40485;53.172;5.416;2022-10-16T12:51:53;19.40;90.60
54590;DHT22;40485;53.172;5.416;2022-10-16T12:54:38;19.30;90.60
54590;DHT22;40485;53.172;5.416;2022-10-16T12:59:53;19.30;90.90
54590;DHT22;40485;53.172;5.416;2022-10-16T13:10:57;19.30;90.30
54590;DHT22;40485;53.172;5.416;2022-10-16T13:16:27;19.20;90.60
54590;DHT22;40485;53.172;5.416;2022-10-16T13:30:21;19.10;91.00
54590;DHT22;40485;53.172;5.416;2022-10-16T13:32:49;19.00;91.10
54590;DHT22;40485;53.172;5.416;2022-10-16T13:35:35;18.90;91.40
54590;DHT22;40485;53.172;5.416;2022-10-16T13:38:20;18.90;91.70
54590;DHT22;40485;53.172;5.416;2022-10-16T13:41:05;19.00;91.40
54590;DHT22;40485;53.172;5.416;2022-10-16T13:43:37;19.00;91.50
54590;DHT22;40485;53.172;5.416;2022-10-16T13:48:37;19.20;91.70
54590;DHT22;40485;53.172;5.416;2022-10-16T13:51:21;19.20;91.70
54590;DHT22;40485;53.172;5.416;2022-10-16T13:53:47;19.20;91.70
54590;DHT22;40485;53.172;5.416;2022-10-16T13:56:18;19.20;91.80
54590;DHT22;40485;53.172;5.416;2022-10-16T13:58:44;19.30;91.90
54590;DHT22;40485;53.172;5.416;2022-10-16T14:01:19;19.40;92.20
54590;DHT22;40485;53.172;5.416;2022-10-16T14:03:46;19.40;92.10
54590;DHT22;40485;53.172;5.416;2022-10-16T14:06:14;19.50;92.30
54590;DHT22;40485;53.172;5.416;2022-10-16T14:09:06;19.60;92.20
54590;DHT22;40485;53.172;5.416;2022-10-16T14:11:33;19.80;92.10
54590;DHT22;40485;53.172;5.416;2022-10-16T14:14:00;19.90;92.10
54590;DHT22;40485;53.172;5.416;2022-10-16T14:16:29;19.90;91.60
54590;DHT22;40485;53.172;5.416;2022-10-16T14:18:57;19.90;91.40
54590;DHT22;40485;53.172;5.416;2022-10-16T14:21:24;19.80;91.40
54590;DHT22;40485;53.172;5.416;2022-10-16T14:23:50;19.70;91.40
54590;DHT22;40485;53.172;5.416;2022-10-16T14:26:19;19.60;91.40
54590;DHT22;40485;53.172;5.416;2022-10-16T14:28:46;19.50;91.50
54590;DHT22;40485;53.172;5.416;2022-10-16T14:31:28;19.30;91.70
54590;DHT22;40485;53.172;5.416;2022-10-16T14:33:55;19.20;92.20
54590;DHT22;40485;53.172;5.416;2022-10-16T14:36:21;19.10;92.10
54590;DHT22;40485;53.172;5.416;2022-10-16T14:39:05;19.00;92.40
54590;DHT22;40485;53.172;5.416;2022-10-16T14:41:33;18.70;92.40
54590;DHT22;40485;53.172;5.416;2022-10-16T14:44:06;18.60;92.50
54590;DHT22;40485;53.172;5.416;2022-10-16T14:46:36;18.40;92.80
54590;DHT22;40485;53.172;5.416;2022-10-16T14:51:39;18.00;93.60
54590;DHT22;40485;53.172;5.416;2022-10-16T14:54:08;17.80;93.90
54590;DHT22;40485;53.172;5.416;2022-10-16T14:56:55;17.70;94.40
54590;DHT22;40485;53.172;5.416;2022-10-16T14:59:32;17.50;94.70
54590;DHT22;40485;53.172;5.416;2022-10-16T15:02:18;17.40;95.10
54590;DHT22;40485;53.172;5.416;2022-10-16T15:04:46;17.30;95.40
54590;DHT22;40485;53.172;5.416;2022-10-16T15:07:11;17.20;95.80
54590;DHT22;40485;53.172;5.416;2022-10-16T15:09:37;17.20;96.00
54590;DHT22;40485;53.172;5.416;2022-10-16T15:12:04;17.10;96.10
54590;DHT22;40485;53.172;5.416;2022-10-16T15:14:30;17.10;96.30
54590;DHT22;40485;53.172;5.416;2022-10-16T15:16:55;17.10;96.40
54590;DHT22;40485;53.172;5.416;2022-10-16T15:19:21;17.00;96.60
54590;DHT22;40485;53.172;5.416;2022-10-16T15:21:47;17.00;96.90
54590;DHT22;40485;53.172;5.416;2022-10-16T15:24:13;16.90;96.80
54590;DHT22;40485;53.172;5.416;2022-10-16T15:26:39;16.90;97.00
54590;DHT22;40485;53.172;5.416;2022-10-16T15:29:05;16.80;97.20
54590;DHT22;40485;53.172;5.416;2022-10-16T15:31:31;16.70;97.50
54590;DHT22;40485;53.172;5.416;2022-10-16T15:33:57;16.70;97.90
54590;DHT22;40485;53.172;5.416;2022-10-16T15:36:33;16.60;98.10
54590;DHT22;40485;53.172;5.416;2022-10-16T15:39:11;16.50;98.40
54590;DHT22;40485;53.172;5.416;2022-10-16T15:41:37;16.50;98.40
54590;DHT22;40485;53.172;5.416;2022-10-16T15:44:03;16.50;98.70
54590;DHT22;40485;53.172;5.416;2022-10-16T15:46:28;16.40;98.80
54590;DHT22;40485;53.172;5.416;2022-10-16T15:48:57;16.30;98.70
54590;DHT22;40485;53.172;5.416;2022-10-16T15:51:23;16.30;99.00
54590;DHT22;40485;53.172;5.416;2022-10-16T15:53:49;16.30;99.00
54590;DHT22;40485;53.172;5.416;2022-10-16T15:56:16;16.20;98.70
54590;DHT22;40485;53.172;5.416;2022-10-16T15:58:43;16.20;98.80
54590;DHT22;40485;53.172;5.416;2022-10-16T16:01:08;16.10;99.00
54590;DHT22;40485;53.172;5.416;2022-10-16T16:03:36;16.10;99.10
54590;DHT22;40485;53.172;5.416;2022-10-16T16:06:07;16.10;99.10
54590;DHT22;40485;53.172;5.416;2022-10-16T16:08:33;16.00;99.20
54590;DHT22;40485;53.172;5.416;2022-10-16T16:11:08;16.00;99.20
54590;DHT22;40485;53.172;5.416;2022-10-16T16:13:34;15.90;99.20
54590;DHT22;40485;53.172;5.416;2022-10-16T16:16:00;15.90;99.50
54590;DHT22;40485;53.172;5.416;2022-10-16T16:18:26;15.90;99.50
54590;DHT22;40485;53.172;5.416;2022-10-16T16:20:52;15.90;99.60
54590;DHT22;40485;53.172;5.416;2022-10-16T16:23:18;16.00;99.50
54590;DHT22;40485;53.172;5.416;2022-10-16T16:25:44;15.90;99.40
54590;DHT22;40485;53.172;5.416;2022-10-16T16:28:10;15.90;99.50
54590;DHT22;40485;53.172;5.416;2022-10-16T16:30:40;15.80;99.70
54590;DHT22;40485;53.172;5.416;2022-10-16T16:33:05;15.80;99.90
54590;DHT22;40485;53.172;5.416;2022-10-16T16:35:31;15.80;99.90
54590;DHT22;40485;53.172;5.416;2022-10-16T16:37:57;15.80;99.90
54590;DHT22;40485;53.172;5.416;2022-10-16T16:40:23;15.80;99.90
54590;DHT22;40485;53.172;5.416;2022-10-16T16:42:49;15.70;99.90
54590;DHT22;40485;53.172;5.416;2022-10-16T16:45:14;15.60;99.90
54590;DHT22;40485;53.172;5.416;2022-10-16T16:47:40;15.60;99.90
54590;DHT22;40485;53.172;5.416;2022-10-16T16:50:06;15.50;99.90
54590;DHT22;40485;53.172;5.416;2022-10-16T16:52:33;15.50;99.90
54590;DHT22;40485;53.172;5.416;2022-10-16T16:54:58;15.50;99.90
54590;DHT22;40485;53.172;5.416;2022-10-16T16:57:24;15.40;99.90
54590;DHT22;40485;53.172;5.416;2022-10-16T16:59:50;15.30;99.90
54590;DHT22;40485;53.172;5.416;2022-10-16T17:02:16;15.30;99.90
54590;DHT22;40485;53.172;5.416;2022-10-16T17:04:42;15.30;99.90
54590;DHT22;40485;53.172;5.416;2022-10-16T17:07:07;15.30;99.90
54590;DHT22;40485;53.172;5.416;2022-10-16T17:09:33;15.30;99.90
54590;DHT22;40485;53.172;5.416;2022-10-16T17:11:59;15.20;99.90
54590;DHT22;40485;53.172;5.416;2022-10-16T17:14:24;15.20;99.90
54590;DHT22;40485;53.172;5.416;2022-10-16T17:16:51;15.20;99.90
54590;DHT22;40485;53.172;5.416;2022-10-16T17:19:18;15.20;99.90
54590;DHT22;40485;53.172;5.416;2022-10-16T17:21:47;15.10;99.90
54590;DHT22;40485;53.172;5.416;2022-10-16T17:24:13;15.10;99.90